Billings (BIL/KBIL)

Map

Information

Location
Billings, MT
Local Time
17:22 / 5:22 pm
GMT Time
00:22 / 12:22 am
Gates
Unassigned
No FAA reported delays
METAR KBIL 230015Z 00000KT 1SM R10L/4000V5000FT -SN BR OVC012 00/M01 A2989 RMK AO2 SNB2355 P0001 T00001006
TAF
  • No charts available